UTC: 27.07.2021 18:07:00
ilmateenistus.ee keskkonnaagentuur.ee
EETN Tallinn
FTEO31 EETN 271700
TAF EETN 271700Z 2718/2818 11012KT CAVOK PROB40 TEMPO 2722/2801
    SCT025CB BECMG 2801/2802 SCT015 BKN025CB TEMPO 2802/2807 3000 TSRA
    BKN007 BKN020CB TEMPO 2807/2815 4000 SHRA PROB40 TEMPO 2808/2815
    VRB22KT TSRA=

METAR COR EETN 271750Z 19005KT 150V220 CAVOK 26/15 Q1012 NOSIG=
Tallinn
EEKA Kärdla
FCEO32 EETN 271200 AAB
TAF AMD EEKA 271614Z 2713/2719 CNL=

METAR EEKA 271750Z NIL=
Kärdla
EEKE Kuressaare
FCEO32 EETN 271400 AAA
TAF AMD EEKE 271800Z 2715/2721 CNL=

SPECI EEKE 271800Z AUTO 08007KT 050V110 9000NDV +RA FEW008 SCT028 OVC039 20/19 Q1010=
Kuressaare
EEPU Pärnu
METAR EEPU 271750Z NIL=
Pärnu
EETU Tartu
METAR EETU 271750Z AUTO 06005KT 020V080 9999 BKN110/// 22/18 Q1012=
Tartu
EEEI Ämari
METAR EEEI 271750Z AUTO 17005KT 130V190 9999 BKN230/// 25/16 Q1012=
Ämari